sensor_id;sensor_type;location;lat;lon;timestamp;P1;durP1;ratioP1;P2;durP2;ratioP2
75512;SDS011;64090;49.770;18.760;2023-07-16T00:02:04;6.10;;;4.10;;
75512;SDS011;64090;49.770;18.760;2023-07-16T00:05:12;3.80;;;3.40;;
75512;SDS011;64090;49.770;18.760;2023-07-16T00:08:20;3.80;;;3.30;;
75512;SDS011;64090;49.770;18.760;2023-07-16T00:11:24;4.60;;;4.10;;
75512;SDS011;64090;49.770;18.760;2023-07-16T00:14:35;5.30;;;3.90;;
75512;SDS011;64090;49.770;18.760;2023-07-16T00:17:39;3.60;;;2.80;;
75512;SDS011;64090;49.770;18.760;2023-07-16T00:20:42;4.60;;;3.60;;
75512;SDS011;64090;49.770;18.760;2023-07-16T00:23:51;4.60;;;4.20;;
75512;SDS011;64090;49.770;18.760;2023-07-16T00:27:00;4.00;;;3.40;;
75512;SDS011;64090;49.770;18.760;2023-07-16T00:30:14;4.40;;;3.50;;
75512;SDS011;64090;49.770;18.760;2023-07-16T00:33:21;4.40;;;3.10;;
75512;SDS011;64090;49.770;18.760;2023-07-16T00:36:24;4.10;;;3.70;;
75512;SDS011;64090;49.770;18.760;2023-07-16T00:39:30;4.20;;;3.30;;
75512;SDS011;64090;49.770;18.760;2023-07-16T00:42:38;5.50;;;4.00;;
75512;SDS011;64090;49.770;18.760;2023-07-16T00:48:52;4.80;;;4.10;;
75512;SDS011;64090;49.770;18.760;2023-07-16T00:52:01;4.70;;;4.20;;
75512;SDS011;64090;49.770;18.760;2023-07-16T00:55:08;4.00;;;3.30;;
75512;SDS011;64090;49.770;18.760;2023-07-16T00:58:12;4.80;;;3.80;;
75512;SDS011;64090;49.770;18.760;2023-07-16T01:01:16;5.10;;;4.20;;
75512;SDS011;64090;49.770;18.760;2023-07-16T01:04:19;4.70;;;3.70;;
75512;SDS011;64090;49.770;18.760;2023-07-16T01:07:25;5.00;;;4.10;;
75512;SDS011;64090;49.770;18.760;2023-07-16T01:10:36;5.40;;;3.80;;
75512;SDS011;64090;49.770;18.760;2023-07-16T01:13:49;5.40;;;4.70;;
75512;SDS011;64090;49.770;18.760;2023-07-16T01:16:56;6.10;;;5.30;;
75512;SDS011;64090;49.770;18.760;2023-07-16T01:20:07;5.00;;;4.50;;
75512;SDS011;64090;49.770;18.760;2023-07-16T01:26:43;5.40;;;4.90;;
75512;SDS011;64090;49.770;18.760;2023-07-16T01:30:33;5.80;;;5.30;;
75512;SDS011;64090;49.770;18.760;2023-07-16T01:33:51;5.80;;;4.90;;
75512;SDS011;64090;49.770;18.760;2023-07-16T01:37:01;7.20;;;4.80;;
75512;SDS011;64090;49.770;18.760;2023-07-16T01:40:22;4.80;;;4.20;;
75512;SDS011;64090;49.770;18.760;2023-07-16T01:43:25;5.20;;;4.70;;
75512;SDS011;64090;49.770;18.760;2023-07-16T01:46:30;5.60;;;4.50;;
75512;SDS011;64090;49.770;18.760;2023-07-16T01:49:36;6.00;;;5.40;;
75512;SDS011;64090;49.770;18.760;2023-07-16T01:52:42;6.60;;;5.90;;
75512;SDS011;64090;49.770;18.760;2023-07-16T01:55:46;5.90;;;5.30;;
75512;SDS011;64090;49.770;18.760;2023-07-16T01:58:50;6.70;;;6.10;;
75512;SDS011;64090;49.770;18.760;2023-07-16T02:01:54;4.90;;;4.40;;
75512;SDS011;64090;49.770;18.760;2023-07-16T02:04:58;6.00;;;5.50;;
75512;SDS011;64090;49.770;18.760;2023-07-16T02:08:03;5.90;;;5.30;;
75512;SDS011;64090;49.770;18.760;2023-07-16T02:11:07;6.40;;;5.80;;
75512;SDS011;64090;49.770;18.760;2023-07-16T02:14:12;7.00;;;5.70;;
75512;SDS011;64090;49.770;18.760;2023-07-16T02:17:17;7.60;;;5.20;;
75512;SDS011;64090;49.770;18.760;2023-07-16T02:20:21;4.70;;;4.20;;
75512;SDS011;64090;49.770;18.760;2023-07-16T02:23:27;4.80;;;4.30;;
75512;SDS011;64090;49.770;18.760;2023-07-16T02:26:42;6.10;;;5.00;;
75512;SDS011;64090;49.770;18.760;2023-07-16T02:29:49;6.60;;;5.50;;
75512;SDS011;64090;49.770;18.760;2023-07-16T02:33:13;5.40;;;4.90;;
75512;SDS011;64090;49.770;18.760;2023-07-16T02:36:18;7.20;;;5.60;;
75512;SDS011;64090;49.770;18.760;2023-07-16T02:39:30;8.80;;;5.50;;
75512;SDS011;64090;49.770;18.760;2023-07-16T02:42:39;5.10;;;4.60;;
75512;SDS011;64090;49.770;18.760;2023-07-16T02:45:42;5.40;;;4.80;;
75512;SDS011;64090;49.770;18.760;2023-07-16T02:48:45;6.20;;;5.60;;
75512;SDS011;64090;49.770;18.760;2023-07-16T02:51:48;5.80;;;4.80;;
75512;SDS011;64090;49.770;18.760;2023-07-16T02:54:55;7.50;;;5.40;;
75512;SDS011;64090;49.770;18.760;2023-07-16T02:58:00;5.30;;;4.80;;
75512;SDS011;64090;49.770;18.760;2023-07-16T03:01:07;6.70;;;5.10;;
75512;SDS011;64090;49.770;18.760;2023-07-16T03:04:14;6.00;;;5.40;;
75512;SDS011;64090;49.770;18.760;2023-07-16T03:07:22;6.20;;;4.90;;
75512;SDS011;64090;49.770;18.760;2023-07-16T03:10:25;7.60;;;4.80;;
75512;SDS011;64090;49.770;18.760;2023-07-16T03:13:44;5.10;;;4.50;;
75512;SDS011;64090;49.770;18.760;2023-07-16T03:16:47;6.00;;;5.30;;
75512;SDS011;64090;49.770;18.760;2023-07-16T03:19:52;5.60;;;5.00;;
75512;SDS011;64090;49.770;18.760;2023-07-16T03:22:56;6.00;;;5.00;;
75512;SDS011;64090;49.770;18.760;2023-07-16T03:25:59;5.20;;;4.70;;
75512;SDS011;64090;49.770;18.760;2023-07-16T03:29:12;5.00;;;4.20;;
75512;SDS011;64090;49.770;18.760;2023-07-16T03:32:17;5.50;;;4.80;;
75512;SDS011;64090;49.770;18.760;2023-07-16T03:35:22;5.60;;;5.10;;
75512;SDS011;64090;49.770;18.760;2023-07-16T03:38:28;4.80;;;4.30;;
75512;SDS011;64090;49.770;18.760;2023-07-16T03:41:31;6.40;;;3.90;;
75512;SDS011;64090;49.770;18.760;2023-07-16T03:44:38;3.40;;;3.10;;
75512;SDS011;64090;49.770;18.760;2023-07-16T03:47:41;4.70;;;4.10;;
75512;SDS011;64090;49.770;18.760;2023-07-16T03:50:46;6.30;;;4.30;;
75512;SDS011;64090;49.770;18.760;2023-07-16T03:53:51;5.50;;;4.70;;
75512;SDS011;64090;49.770;18.760;2023-07-16T03:56:54;4.40;;;4.00;;
75512;SDS011;64090;49.770;18.760;2023-07-16T03:59:57;4.20;;;3.60;;
75512;SDS011;64090;49.770;18.760;2023-07-16T04:03:00;4.80;;;4.20;;
75512;SDS011;64090;49.770;18.760;2023-07-16T04:06:05;4.00;;;3.60;;
75512;SDS011;64090;49.770;18.760;2023-07-16T04:12:19;4.00;;;3.50;;
75512;SDS011;64090;49.770;18.760;2023-07-16T04:15:26;3.90;;;3.40;;
75512;SDS011;64090;49.770;18.760;2023-07-16T04:18:29;4.20;;;3.80;;
75512;SDS011;64090;49.770;18.760;2023-07-16T04:21:33;4.50;;;3.50;;
75512;SDS011;64090;49.770;18.760;2023-07-16T04:24:35;3.80;;;3.40;;
75512;SDS011;64090;49.770;18.760;2023-07-16T04:27:39;4.40;;;3.40;;
75512;SDS011;64090;49.770;18.760;2023-07-16T04:30:44;5.00;;;3.30;;
75512;SDS011;64090;49.770;18.760;2023-07-16T04:33:47;4.60;;;3.70;;
75512;SDS011;64090;49.770;18.760;2023-07-16T04:36:54;4.30;;;3.40;;
75512;SDS011;64090;49.770;18.760;2023-07-16T04:39:57;4.30;;;3.90;;
75512;SDS011;64090;49.770;18.760;2023-07-16T04:43:00;6.00;;;3.70;;
75512;SDS011;64090;49.770;18.760;2023-07-16T04:46:04;5.10;;;4.00;;
75512;SDS011;64090;49.770;18.760;2023-07-16T04:49:07;4.80;;;3.30;;
75512;SDS011;64090;49.770;18.760;2023-07-16T04:52:10;3.70;;;2.90;;
75512;SDS011;64090;49.770;18.760;2023-07-16T04:55:13;4.00;;;3.50;;
75512;SDS011;64090;49.770;18.760;2023-07-16T04:58:16;4.20;;;3.20;;
75512;SDS011;64090;49.770;18.760;2023-07-16T05:01:19;3.90;;;3.20;;
75512;SDS011;64090;49.770;18.760;2023-07-16T05:04:23;4.30;;;3.10;;
75512;SDS011;64090;49.770;18.760;2023-07-16T05:07:26;4.90;;;3.20;;
75512;SDS011;64090;49.770;18.760;2023-07-16T05:10:29;4.60;;;3.30;;
75512;SDS011;64090;49.770;18.760;2023-07-16T05:13:32;4.40;;;3.20;;
75512;SDS011;64090;49.770;18.760;2023-07-16T05:16:35;4.20;;;3.30;;
75512;SDS011;64090;49.770;18.760;2023-07-16T05:19:41;3.80;;;3.50;;
75512;SDS011;64090;49.770;18.760;2023-07-16T05:23:00;3.90;;;3.50;;
75512;SDS011;64090;49.770;18.760;2023-07-16T05:26:04;4.10;;;3.10;;
75512;SDS011;64090;49.770;18.760;2023-07-16T05:29:07;5.00;;;3.80;;
75512;SDS011;64090;49.770;18.760;2023-07-16T05:32:10;5.10;;;3.30;;
75512;SDS011;64090;49.770;18.760;2023-07-16T05:35:13;4.10;;;3.40;;
75512;SDS011;64090;49.770;18.760;2023-07-16T05:38:18;4.80;;;4.00;;
75512;SDS011;64090;49.770;18.760;2023-07-16T05:41:21;4.40;;;3.30;;
75512;SDS011;64090;49.770;18.760;2023-07-16T05:44:25;3.70;;;3.30;;
75512;SDS011;64090;49.770;18.760;2023-07-16T05:47:29;4.30;;;3.80;;
75512;SDS011;64090;49.770;18.760;2023-07-16T05:50:36;4.10;;;3.70;;
75512;SDS011;64090;49.770;18.760;2023-07-16T05:53:40;3.90;;;3.50;;
75512;SDS011;64090;49.770;18.760;2023-07-16T05:56:46;4.00;;;2.90;;
75512;SDS011;64090;49.770;18.760;2023-07-16T05:59:50;4.70;;;3.90;;
75512;SDS011;64090;49.770;18.760;2023-07-16T06:03:04;4.70;;;3.20;;
75512;SDS011;64090;49.770;18.760;2023-07-16T06:06:09;4.20;;;3.70;;
75512;SDS011;64090;49.770;18.760;2023-07-16T06:09:12;3.70;;;3.40;;
75512;SDS011;64090;49.770;18.760;2023-07-16T06:12:15;4.10;;;3.00;;
75512;SDS011;64090;49.770;18.760;2023-07-16T06:15:18;4.20;;;2.90;;
75512;SDS011;64090;49.770;18.760;2023-07-16T06:18:26;4.20;;;3.70;;
75512;SDS011;64090;49.770;18.760;2023-07-16T06:21:29;4.50;;;3.30;;
75512;SDS011;64090;49.770;18.760;2023-07-16T06:24:32;4.90;;;4.20;;
75512;SDS011;64090;49.770;18.760;2023-07-16T06:27:36;3.80;;;3.30;;
75512;SDS011;64090;49.770;18.760;2023-07-16T06:30:39;4.40;;;3.70;;
75512;SDS011;64090;49.770;18.760;2023-07-16T06:34:04;5.70;;;3.70;;
75512;SDS011;64090;49.770;18.760;2023-07-16T06:37:08;5.50;;;3.90;;
75512;SDS011;64090;49.770;18.760;2023-07-16T06:40:14;3.90;;;3.40;;
75512;SDS011;64090;49.770;18.760;2023-07-16T06:43:17;3.80;;;3.30;;
75512;SDS011;64090;49.770;18.760;2023-07-16T06:46:21;4.30;;;3.60;;
75512;SDS011;64090;49.770;18.760;2023-07-16T06:49:24;5.50;;;4.10;;
75512;SDS011;64090;49.770;18.760;2023-07-16T06:52:31;4.00;;;3.50;;
75512;SDS011;64090;49.770;18.760;2023-07-16T06:55:35;5.00;;;3.60;;
75512;SDS011;64090;49.770;18.760;2023-07-16T06:58:41;4.00;;;3.40;;
75512;SDS011;64090;49.770;18.760;2023-07-16T07:01:45;5.30;;;3.90;;
75512;SDS011;64090;49.770;18.760;2023-07-16T07:04:48;3.80;;;3.40;;
75512;SDS011;64090;49.770;18.760;2023-07-16T07:07:55;4.50;;;4.10;;
75512;SDS011;64090;49.770;18.760;2023-07-16T07:11:06;3.90;;;3.40;;
75512;SDS011;64090;49.770;18.760;2023-07-16T07:14:10;4.00;;;3.40;;
75512;SDS011;64090;49.770;18.760;2023-07-16T07:17:14;4.60;;;3.80;;
75512;SDS011;64090;49.770;18.760;2023-07-16T07:20:18;4.30;;;3.60;;
75512;SDS011;64090;49.770;18.760;2023-07-16T07:23:23;5.20;;;3.80;;
75512;SDS011;64090;49.770;18.760;2023-07-16T07:26:26;4.00;;;3.20;;
75512;SDS011;64090;49.770;18.760;2023-07-16T07:29:34;4.90;;;3.40;;
75512;SDS011;64090;49.770;18.760;2023-07-16T07:32:41;4.10;;;3.70;;
75512;SDS011;64090;49.770;18.760;2023-07-16T07:35:45;5.40;;;4.00;;
75512;SDS011;64090;49.770;18.760;2023-07-16T07:38:52;4.70;;;3.70;;
75512;SDS011;64090;49.770;18.760;2023-07-16T07:41:56;5.60;;;3.50;;
75512;SDS011;64090;49.770;18.760;2023-07-16T07:44:59;4.30;;;3.80;;
75512;SDS011;64090;49.770;18.760;2023-07-16T07:48:02;5.70;;;4.30;;
75512;SDS011;64090;49.770;18.760;2023-07-16T07:51:05;4.10;;;3.30;;
75512;SDS011;64090;49.770;18.760;2023-07-16T07:54:10;4.30;;;3.90;;
75512;SDS011;64090;49.770;18.760;2023-07-16T07:57:14;5.00;;;4.00;;
75512;SDS011;64090;49.770;18.760;2023-07-16T08:00:28;5.30;;;4.00;;
75512;SDS011;64090;49.770;18.760;2023-07-16T08:03:31;5.10;;;4.40;;
75512;SDS011;64090;49.770;18.760;2023-07-16T08:06:36;5.10;;;4.60;;
75512;SDS011;64090;49.770;18.760;2023-07-16T08:09:46;4.80;;;3.80;;
75512;SDS011;64090;49.770;18.760;2023-07-16T08:12:50;5.30;;;4.80;;
75512;SDS011;64090;49.770;18.760;2023-07-16T08:15:54;5.40;;;4.60;;
75512;SDS011;64090;49.770;18.760;2023-07-16T08:18:57;5.30;;;4.60;;
75512;SDS011;64090;49.770;18.760;2023-07-16T08:22:01;5.30;;;4.80;;
75512;SDS011;64090;49.770;18.760;2023-07-16T08:25:08;5.70;;;5.20;;
75512;SDS011;64090;49.770;18.760;2023-07-16T08:28:18;6.00;;;5.10;;
75512;SDS011;64090;49.770;18.760;2023-07-16T08:31:21;5.50;;;5.00;;
75512;SDS011;64090;49.770;18.760;2023-07-16T08:34:24;5.20;;;4.70;;
75512;SDS011;64090;49.770;18.760;2023-07-16T08:37:32;5.90;;;5.20;;
75512;SDS011;64090;49.770;18.760;2023-07-16T08:40:36;5.80;;;5.20;;
75512;SDS011;64090;49.770;18.760;2023-07-16T08:43:46;6.40;;;5.80;;
75512;SDS011;64090;49.770;18.760;2023-07-16T08:46:50;5.30;;;4.70;;
75512;SDS011;64090;49.770;18.760;2023-07-16T08:49:55;5.50;;;5.00;;
75512;SDS011;64090;49.770;18.760;2023-07-16T08:52:58;6.20;;;5.50;;
75512;SDS011;64090;49.770;18.760;2023-07-16T08:56:05;5.80;;;5.00;;
75512;SDS011;64090;49.770;18.760;2023-07-16T08:59:17;5.10;;;4.60;;
75512;SDS011;64090;49.770;18.760;2023-07-16T09:02:21;5.60;;;5.10;;
75512;SDS011;64090;49.770;18.760;2023-07-16T09:05:24;5.40;;;4.70;;
75512;SDS011;64090;49.770;18.760;2023-07-16T09:08:45;6.70;;;5.40;;
75512;SDS011;64090;49.770;18.760;2023-07-16T09:11:48;6.50;;;5.40;;
75512;SDS011;64090;49.770;18.760;2023-07-16T09:14:51;6.80;;;5.50;;
75512;SDS011;64090;49.770;18.760;2023-07-16T09:17:55;6.50;;;5.60;;
75512;SDS011;64090;49.770;18.760;2023-07-16T09:21:02;5.70;;;5.10;;
75512;SDS011;64090;49.770;18.760;2023-07-16T09:24:09;5.50;;;5.00;;
75512;SDS011;64090;49.770;18.760;2023-07-16T09:27:12;6.20;;;5.30;;
75512;SDS011;64090;49.770;18.760;2023-07-16T09:30:23;6.30;;;5.70;;
75512;SDS011;64090;49.770;18.760;2023-07-16T09:33:26;6.50;;;5.90;;
75512;SDS011;64090;49.770;18.760;2023-07-16T09:36:29;8.60;;;5.80;;
75512;SDS011;64090;49.770;18.760;2023-07-16T09:39:36;7.50;;;6.40;;
75512;SDS011;64090;49.770;18.760;2023-07-16T09:42:43;6.70;;;6.10;;
75512;SDS011;64090;49.770;18.760;2023-07-16T09:45:48;7.80;;;7.00;;
75512;SDS011;64090;49.770;18.760;2023-07-16T09:48:51;7.50;;;6.80;;
75512;SDS011;64090;49.770;18.760;2023-07-16T09:51:59;7.10;;;5.90;;
75512;SDS011;64090;49.770;18.760;2023-07-16T09:55:10;7.50;;;6.60;;
75512;SDS011;64090;49.770;18.760;2023-07-16T09:58:18;7.00;;;6.40;;
75512;SDS011;64090;49.770;18.760;2023-07-16T10:01:23;8.00;;;7.20;;
75512;SDS011;64090;49.770;18.760;2023-07-16T10:04:36;6.80;;;6.20;;
75512;SDS011;64090;49.770;18.760;2023-07-16T10:07:54;5.80;;;5.20;;
75512;SDS011;64090;49.770;18.760;2023-07-16T10:11:25;7.60;;;6.90;;
75512;SDS011;64090;49.770;18.760;2023-07-16T10:14:32;9.30;;;8.40;;
75512;SDS011;64090;49.770;18.760;2023-07-16T10:17:52;9.20;;;7.70;;
75512;SDS011;64090;49.770;18.760;2023-07-16T10:20:59;8.20;;;7.40;;
75512;SDS011;64090;49.770;18.760;2023-07-16T10:24:16;8.60;;;7.80;;
75512;SDS011;64090;49.770;18.760;2023-07-16T10:27:32;9.60;;;8.70;;
75512;SDS011;64090;49.770;18.760;2023-07-16T10:30:42;9.90;;;9.00;;
75512;SDS011;64090;49.770;18.760;2023-07-16T10:33:55;9.70;;;8.60;;
75512;SDS011;64090;49.770;18.760;2023-07-16T10:37:05;10.20;;;9.00;;
75512;SDS011;64090;49.770;18.760;2023-07-16T10:40:10;10.00;;;9.10;;
75512;SDS011;64090;49.770;18.760;2023-07-16T10:43:18;10.10;;;9.00;;
75512;SDS011;64090;49.770;18.760;2023-07-16T10:46:28;9.10;;;8.00;;
75512;SDS011;64090;49.770;18.760;2023-07-16T10:49:34;10.60;;;9.60;;
75512;SDS011;64090;49.770;18.760;2023-07-16T10:52:37;13.00;;;10.20;;
75512;SDS011;64090;49.770;18.760;2023-07-16T10:55:41;11.30;;;10.40;;
75512;SDS011;64090;49.770;18.760;2023-07-16T10:58:44;11.20;;;10.10;;
75512;SDS011;64090;49.770;18.760;2023-07-16T11:01:47;10.70;;;9.30;;
75512;SDS011;64090;49.770;18.760;2023-07-16T11:04:51;10.50;;;9.50;;
75512;SDS011;64090;49.770;18.760;2023-07-16T11:08:06;9.60;;;8.70;;
75512;SDS011;64090;49.770;18.760;2023-07-16T11:11:08;12.10;;;9.40;;
75512;SDS011;64090;49.770;18.760;2023-07-16T11:14:11;9.90;;;9.00;;
75512;SDS011;64090;49.770;18.760;2023-07-16T11:17:20;10.30;;;9.40;;
75512;SDS011;64090;49.770;18.760;2023-07-16T11:20:46;9.60;;;8.70;;
75512;SDS011;64090;49.770;18.760;2023-07-16T11:23:55;9.20;;;8.30;;
75512;SDS011;64090;49.770;18.760;2023-07-16T11:26:58;8.80;;;8.10;;
75512;SDS011;64090;49.770;18.760;2023-07-16T11:30:02;11.10;;;8.90;;
75512;SDS011;64090;49.770;18.760;2023-07-16T11:33:09;9.60;;;8.70;;
75512;SDS011;64090;49.770;18.760;2023-07-16T11:36:16;11.10;;;10.10;;
75512;SDS011;64090;49.770;18.760;2023-07-16T11:39:20;9.90;;;8.90;;
75512;SDS011;64090;49.770;18.760;2023-07-16T11:42:27;10.80;;;9.80;;
75512;SDS011;64090;49.770;18.760;2023-07-16T11:45:47;10.70;;;9.60;;
75512;SDS011;64090;49.770;18.760;2023-07-16T11:48:55;10.00;;;9.10;;
75512;SDS011;64090;49.770;18.760;2023-07-16T11:51:58;10.90;;;10.00;;
75512;SDS011;64090;49.770;18.760;2023-07-16T11:55:02;12.20;;;11.20;;
75512;SDS011;64090;49.770;18.760;2023-07-16T11:58:07;11.70;;;10.70;;
75512;SDS011;64090;49.770;18.760;2023-07-16T12:01:10;12.00;;;10.90;;
75512;SDS011;64090;49.770;18.760;2023-07-16T12:04:16;12.00;;;11.10;;
75512;SDS011;64090;49.770;18.760;2023-07-16T12:07:34;11.60;;;10.50;;
75512;SDS011;64090;49.770;18.760;2023-07-16T12:10:38;12.20;;;11.10;;
75512;SDS011;64090;49.770;18.760;2023-07-16T12:13:41;10.80;;;9.70;;
75512;SDS011;64090;49.770;18.760;2023-07-16T12:16:44;12.90;;;9.80;;
75512;SDS011;64090;49.770;18.760;2023-07-16T12:19:50;11.70;;;10.50;;
75512;SDS011;64090;49.770;18.760;2023-07-16T12:22:53;11.90;;;10.90;;
75512;SDS011;64090;49.770;18.760;2023-07-16T12:25:56;10.60;;;9.70;;
75512;SDS011;64090;49.770;18.760;2023-07-16T12:29:00;10.90;;;9.80;;
75512;SDS011;64090;49.770;18.760;2023-07-16T12:32:10;11.20;;;10.30;;
75512;SDS011;64090;49.770;18.760;2023-07-16T12:35:17;10.10;;;9.20;;
75512;SDS011;64090;49.770;18.760;2023-07-16T12:38:21;10.20;;;9.20;;
75512;SDS011;64090;49.770;18.760;2023-07-16T12:41:27;11.20;;;10.20;;
75512;SDS011;64090;49.770;18.760;2023-07-16T12:44:30;10.70;;;9.80;;
75512;SDS011;64090;49.770;18.760;2023-07-16T12:47:33;11.80;;;10.70;;
75512;SDS011;64090;49.770;18.760;2023-07-16T12:50:36;11.40;;;10.50;;
75512;SDS011;64090;49.770;18.760;2023-07-16T12:53:39;11.50;;;10.60;;
75512;SDS011;64090;49.770;18.760;2023-07-16T12:59:48;11.30;;;10.40;;
75512;SDS011;64090;49.770;18.760;2023-07-16T13:02:51;10.60;;;9.70;;
75512;SDS011;64090;49.770;18.760;2023-07-16T13:05:54;11.00;;;10.00;;
75512;SDS011;64090;49.770;18.760;2023-07-16T13:09:01;11.80;;;10.90;;
75512;SDS011;64090;49.770;18.760;2023-07-16T13:12:04;10.70;;;9.70;;
75512;SDS011;64090;49.770;18.760;2023-07-16T13:15:08;10.50;;;9.50;;
75512;SDS011;64090;49.770;18.760;2023-07-16T13:18:12;9.60;;;8.60;;
75512;SDS011;64090;49.770;18.760;2023-07-16T13:21:15;10.70;;;9.80;;
75512;SDS011;64090;49.770;18.760;2023-07-16T13:24:18;10.30;;;9.40;;
75512;SDS011;64090;49.770;18.760;2023-07-16T13:27:22;9.90;;;9.10;;
75512;SDS011;64090;49.770;18.760;2023-07-16T13:30:28;10.90;;;10.00;;
75512;SDS011;64090;49.770;18.760;2023-07-16T13:33:31;10.40;;;9.50;;
75512;SDS011;64090;49.770;18.760;2023-07-16T13:36:35;10.00;;;9.10;;
75512;SDS011;64090;49.770;18.760;2023-07-16T13:39:38;10.30;;;9.30;;
75512;SDS011;64090;49.770;18.760;2023-07-16T13:42:43;12.00;;;11.00;;
75512;SDS011;64090;49.770;18.760;2023-07-16T13:45:51;10.50;;;9.60;;
75512;SDS011;64090;49.770;18.760;2023-07-16T13:48:54;10.50;;;9.60;;
75512;SDS011;64090;49.770;18.760;2023-07-16T13:52:01;10.40;;;9.60;;
75512;SDS011;64090;49.770;18.760;2023-07-16T13:55:04;10.10;;;9.30;;
75512;SDS011;64090;49.770;18.760;2023-07-16T13:58:09;9.90;;;8.90;;
75512;SDS011;64090;49.770;18.760;2023-07-16T14:01:13;10.90;;;10.00;;
75512;SDS011;64090;49.770;18.760;2023-07-16T14:04:16;11.00;;;10.00;;
75512;SDS011;64090;49.770;18.760;2023-07-16T14:07:24;10.10;;;9.20;;
75512;SDS011;64090;49.770;18.760;2023-07-16T14:10:27;11.90;;;11.00;;
75512;SDS011;64090;49.770;18.760;2023-07-16T14:13:30;11.20;;;10.20;;
75512;SDS011;64090;49.770;18.760;2023-07-16T14:16:37;11.30;;;10.30;;
75512;SDS011;64090;49.770;18.760;2023-07-16T14:19:43;10.80;;;9.90;;
75512;SDS011;64090;49.770;18.760;2023-07-16T14:22:48;9.70;;;8.80;;
75512;SDS011;64090;49.770;18.760;2023-07-16T14:25:52;10.30;;;9.30;;
75512;SDS011;64090;49.770;18.760;2023-07-16T14:28:55;10.30;;;9.40;;
75512;SDS011;64090;49.770;18.760;2023-07-16T14:31:58;9.90;;;9.00;;
75512;SDS011;64090;49.770;18.760;2023-07-16T14:35:02;9.80;;;8.60;;
75512;SDS011;64090;49.770;18.760;2023-07-16T14:38:08;10.30;;;9.30;;
75512;SDS011;64090;49.770;18.760;2023-07-16T14:41:15;10.90;;;10.00;;
75512;SDS011;64090;49.770;18.760;2023-07-16T14:44:18;14.40;;;13.00;;
75512;SDS011;64090;49.770;18.760;2023-07-16T14:47:21;11.60;;;10.50;;
75512;SDS011;64090;49.770;18.760;2023-07-16T14:50:25;11.40;;;10.50;;
75512;SDS011;64090;49.770;18.760;2023-07-16T14:53:37;9.60;;;8.70;;
75512;SDS011;64090;49.770;18.760;2023-07-16T14:56:49;10.30;;;9.50;;
75512;SDS011;64090;49.770;18.760;2023-07-16T14:59:52;11.30;;;10.40;;
75512;SDS011;64090;49.770;18.760;2023-07-16T15:02:55;13.00;;;11.70;;
75512;SDS011;64090;49.770;18.760;2023-07-16T15:05:58;11.50;;;10.60;;
75512;SDS011;64090;49.770;18.760;2023-07-16T15:09:09;10.60;;;9.70;;
75512;SDS011;64090;49.770;18.760;2023-07-16T15:12:17;11.10;;;10.20;;
75512;SDS011;64090;49.770;18.760;2023-07-16T15:15:22;12.00;;;11.00;;
75512;SDS011;64090;49.770;18.760;2023-07-16T15:18:26;12.70;;;11.70;;
75512;SDS011;64090;49.770;18.760;2023-07-16T15:21:32;11.80;;;10.70;;
75512;SDS011;64090;49.770;18.760;2023-07-16T15:24:40;12.10;;;11.00;;
75512;SDS011;64090;49.770;18.760;2023-07-16T15:27:47;12.90;;;11.70;;
75512;SDS011;64090;49.770;18.760;2023-07-16T15:30:50;14.90;;;13.50;;
75512;SDS011;64090;49.770;18.760;2023-07-16T15:33:53;15.80;;;14.50;;
75512;SDS011;64090;49.770;18.760;2023-07-16T15:36:58;13.60;;;12.50;;
75512;SDS011;64090;49.770;18.760;2023-07-16T15:40:11;15.40;;;13.90;;
75512;SDS011;64090;49.770;18.760;2023-07-16T15:43:23;17.70;;;16.10;;
75512;SDS011;64090;49.770;18.760;2023-07-16T16:00:01;9.50;;;8.40;;
75512;SDS011;64090;49.770;18.760;2023-07-16T16:15:23;8.90;;;8.00;;
75512;SDS011;64090;49.770;18.760;2023-07-16T16:18:26;10.60;;;9.40;;
75512;SDS011;64090;49.770;18.760;2023-07-16T16:21:29;8.80;;;7.50;;
75512;SDS011;64090;49.770;18.760;2023-07-16T16:24:32;7.80;;;6.90;;
75512;SDS011;64090;49.770;18.760;2023-07-16T16:27:35;10.20;;;9.20;;
75512;SDS011;64090;49.770;18.760;2023-07-16T16:30:39;14.20;;;12.90;;
75512;SDS011;64090;49.770;18.760;2023-07-16T16:33:44;15.00;;;13.60;;
75512;SDS011;64090;49.770;18.760;2023-07-16T16:36:47;15.10;;;13.70;;
75512;SDS011;64090;49.770;18.760;2023-07-16T16:39:50;15.10;;;13.80;;
75512;SDS011;64090;49.770;18.760;2023-07-16T16:42:53;15.40;;;14.00;;
75512;SDS011;64090;49.770;18.760;2023-07-16T16:45:57;16.50;;;14.80;;
75512;SDS011;64090;49.770;18.760;2023-07-16T16:48:59;16.20;;;14.80;;
75512;SDS011;64090;49.770;18.760;2023-07-16T16:52:07;18.20;;;16.60;;
75512;SDS011;64090;49.770;18.760;2023-07-16T16:55:10;16.40;;;15.00;;
75512;SDS011;64090;49.770;18.760;2023-07-16T16:58:14;19.60;;;17.90;;
75512;SDS011;64090;49.770;18.760;2023-07-16T17:01:16;16.00;;;14.50;;
75512;SDS011;64090;49.770;18.760;2023-07-16T17:04:21;16.40;;;14.90;;
75512;SDS011;64090;49.770;18.760;2023-07-16T17:07:25;17.10;;;15.70;;
75512;SDS011;64090;49.770;18.760;2023-07-16T17:10:28;12.60;;;11.50;;
75512;SDS011;64090;49.770;18.760;2023-07-16T17:13:31;11.80;;;10.60;;
75512;SDS011;64090;49.770;18.760;2023-07-16T17:16:34;11.00;;;10.00;;
75512;SDS011;64090;49.770;18.760;2023-07-16T17:19:37;12.60;;;11.40;;
75512;SDS011;64090;49.770;18.760;2023-07-16T18:04:54;9.70;;;8.80;;
75512;SDS011;64090;49.770;18.760;2023-07-16T18:07:58;10.20;;;9.20;;
75512;SDS011;64090;49.770;18.760;2023-07-16T18:11:01;10.40;;;9.20;;
75512;SDS011;64090;49.770;18.760;2023-07-16T18:14:04;9.80;;;8.90;;
75512;SDS011;64090;49.770;18.760;2023-07-16T18:17:09;9.40;;;8.50;;
75512;SDS011;64090;49.770;18.760;2023-07-16T18:21:02;9.60;;;8.80;;
75512;SDS011;64090;49.770;18.760;2023-07-16T18:24:20;10.40;;;9.40;;
75512;SDS011;64090;49.770;18.760;2023-07-16T18:27:24;10.50;;;9.60;;
75512;SDS011;64090;49.770;18.760;2023-07-16T18:30:30;10.40;;;9.40;;
75512;SDS011;64090;49.770;18.760;2023-07-16T18:33:42;12.20;;;11.10;;
75512;SDS011;64090;49.770;18.760;2023-07-16T18:36:45;12.00;;;10.90;;
75512;SDS011;64090;49.770;18.760;2023-07-16T18:39:51;12.90;;;11.70;;
75512;SDS011;64090;49.770;18.760;2023-07-16T18:43:06;12.20;;;11.10;;
75512;SDS011;64090;49.770;18.760;2023-07-16T18:46:11;12.80;;;11.50;;
75512;SDS011;64090;49.770;18.760;2023-07-16T18:49:19;13.70;;;12.40;;
75512;SDS011;64090;49.770;18.760;2023-07-16T18:52:23;13.40;;;12.00;;
75512;SDS011;64090;49.770;18.760;2023-07-16T18:55:29;13.40;;;12.10;;
75512;SDS011;64090;49.770;18.760;2023-07-16T18:58:34;15.00;;;13.60;;
75512;SDS011;64090;49.770;18.760;2023-07-16T19:01:38;14.00;;;12.60;;
75512;SDS011;64090;49.770;18.760;2023-07-16T19:04:42;16.40;;;14.90;;
75512;SDS011;64090;49.770;18.760;2023-07-16T19:07:49;15.90;;;14.40;;
75512;SDS011;64090;49.770;18.760;2023-07-16T19:10:53;16.00;;;14.50;;
75512;SDS011;64090;49.770;18.760;2023-07-16T19:14:03;15.30;;;13.80;;
75512;SDS011;64090;49.770;18.760;2023-07-16T19:17:14;17.60;;;16.00;;
75512;SDS011;64090;49.770;18.760;2023-07-16T19:20:18;15.40;;;13.90;;
75512;SDS011;64090;49.770;18.760;2023-07-16T19:23:22;15.70;;;14.20;;
75512;SDS011;64090;49.770;18.760;2023-07-16T19:26:31;17.00;;;15.40;;
75512;SDS011;64090;49.770;18.760;2023-07-16T19:29:35;15.70;;;14.30;;
75512;SDS011;64090;49.770;18.760;2023-07-16T19:32:39;17.80;;;16.10;;
75512;SDS011;64090;49.770;18.760;2023-07-16T19:35:42;16.50;;;14.90;;